Airfield :
LOGIN :

Register | Disclaimer

   EN    FR    IT 

 










Legend :    VFR   Marginal VFR   IFR   Intensive IFR   Very Intensive IFR
Visi :
Ceiling :
>= 8 km
>= 3000ft
5 to 8 km
1000 to 3000 ft
1500m to 5 km
500 to 1000 ft
800 to 1500m
200 to 500 ft
< 800m
< 200 ft
Symbols :   Thunderstorms  Fog  Heavy snow  Heavy precipitations  Wind > 20 kt
SIGMETs :     Misc.  Thunderstorms  Icing  Turbulence  Mountain Waves  Volcanic Ashes






- Airport Elevation : 13 ft
- IATA code : OST


EBOS - Oostend bruges Int.

CURRENT METAR :
  • 031950Z 02011KT 9999 BKN011 14/11 Q1005 NOSIG

EXPIRED METARs :
  • 031920Z 02011KT 9999 BKN011 14/11 Q1005 BECMG SCT012
  • 031850Z 01010KT 9999 BKN011 14/11 Q1005 BECMG SCT012
  • 031820Z 01010KT 340V040 9999 SCT010 14/11 Q1005 TEMPO BKN010
  • 031750Z 36011KT 9999 FEW010 15/11 Q1005 NOSIG
  • 031720Z 01011KT 340V040 9999 FEW010 15/11 Q1005 NOSIG

TAF TAF EBOS
Valid from the 03 at 18:00 until the 05 at 00:00 UTC


031706Z 0318/0424 36012KT 9999 SCT012
TEMPO 0405/0412 4500 RA SHRA BKN008
TEMPO 0410/0415 35017G27KT



MET'MAP, your aeronautical weather chart ! - Copyright ORBIFLY December 2007 - Disclaimer

ORBIFLY MET'MAP TEAM :

Programming & Development : Alexandra Zaïnal
Concept & original design : Baudouin d'Aumeries
Assistance for programming : Marc-Olivier Méhu
Technical & hardware support : Manuel Goepfert

Contact : metmap@orbifly.com




SOURCES & CREDITS :

   NOAA